createdAt,value
2017-12-25T00:00:02.180Z,3.49
2017-12-25T00:00:06.422Z,3.5
2017-12-25T00:00:10.780Z,3.57
2017-12-25T00:00:15.008Z,3.45
2017-12-25T00:00:18.920Z,3.46
2017-12-25T00:00:22.935Z,3.49
2017-12-25T00:00:26.955Z,3.53
2017-12-25T00:00:31.182Z,3.46
2017-12-25T00:00:35.404Z,3.49
2017-12-25T00:00:39.622Z,3.49
2017-12-25T00:00:43.744Z,3.53
2017-12-25T00:00:48.088Z,3.49
2017-12-25T00:00:52.421Z,3.42
2017-12-25T00:00:56.458Z,3.45
2017-12-25T00:01:00.685Z,3.45
2017-12-25T00:01:05.176Z,3.44
2017-12-25T00:01:09.497Z,3.49
2017-12-25T00:01:13.723Z,3.46
2017-12-25T00:01:17.846Z,3.44
2017-12-25T00:01:22.186Z,3.49
2017-12-25T00:01:26.512Z,3.49
2017-12-25T00:01:30.757Z,3.44
2017-12-25T00:01:35.085Z,3.49
2017-12-25T00:01:39.206Z,3.44
2017-12-25T00:01:43.341Z,3.49
2017-12-25T00:01:47.568Z,3.45
2017-12-25T00:01:51.804Z,3.45
2017-12-25T00:01:56.031Z,3.31
2017-12-25T00:02:00.139Z,3.42
2017-12-25T00:02:04.762Z,3.35
2017-12-25T00:02:08.800Z,3.42
2017-12-25T00:02:12.968Z,3.39
2017-12-25T00:02:17.002Z,3.41
2017-12-25T00:02:21.230Z,3.35
2017-12-25T00:02:25.466Z,3.41
2017-12-25T00:02:29.490Z,3.44
2017-12-25T00:02:33.622Z,3.42
2017-12-25T00:02:37.853Z,3.34
2017-12-25T00:02:42.088Z,3.42
2017-12-25T00:02:46.327Z,3.46
2017-12-25T00:02:50.660Z,3.37
2017-12-25T00:02:54.774Z,3.34
2017-12-25T00:02:59.012Z,3.44
2017-12-25T00:03:03.277Z,3.45
2017-12-25T00:03:07.295Z,3.45
2017-12-25T00:03:11.417Z,3.37
2017-12-25T00:03:15.552Z,3.42
2017-12-25T00:03:19.787Z,3.42
2017-12-25T00:03:24.029Z,3.42
2017-12-25T00:03:28.239Z,3.42
2017-12-25T00:03:32.558Z,3.42
2017-12-25T00:03:36.769Z,3.31
2017-12-25T00:03:41.089Z,3.41
2017-12-25T00:03:44.991Z,3.41
2017-12-25T00:03:49.341Z,3.33
2017-12-25T00:03:53.447Z,3.28
2017-12-25T00:03:57.562Z,3.31
2017-12-25T00:04:01.782Z,3.37
2017-12-25T00:04:05.912Z,3.33
2017-12-25T00:04:10.040Z,3.25
2017-12-25T00:04:14.159Z,3.42
2017-12-25T00:04:18.282Z,3.39
2017-12-25T00:04:22.407Z,3.34
2017-12-25T00:04:26.650Z,3.31
2017-12-25T00:04:30.884Z,3.28
2017-12-25T00:04:35.111Z,3.31
2017-12-25T00:04:39.336Z,3.26
2017-12-25T00:04:43.591Z,3.28
2017-12-25T00:04:47.933Z,3.26
2017-12-25T00:04:52.251Z,3.34
2017-12-25T00:04:56.459Z,3.25
2017-12-25T00:05:00.680Z,3.34
2017-12-25T00:05:04.684Z,3.3
2017-12-25T00:05:08.929Z,3.26
2017-12-25T00:05:12.829Z,3.26
2017-12-25T00:05:17.165Z,3.3
2017-12-25T00:05:21.291Z,3.3
2017-12-25T00:05:25.530Z,3.26
2017-12-25T00:05:29.644Z,3.31
2017-12-25T00:05:33.663Z,3.33
2017-12-25T00:05:37.901Z,3.22
2017-12-25T00:05:42.285Z,3.31
2017-12-25T00:05:46.524Z,3.3
2017-12-25T00:05:50.653Z,3.28
2017-12-25T00:05:54.777Z,3.31
2017-12-25T00:05:59.001Z,3.26
2017-12-25T00:06:03.239Z,3.26
2017-12-25T00:06:07.477Z,3.3
2017-12-25T00:06:11.610Z,3.23
2017-12-25T00:06:15.957Z,3.25
2017-12-25T00:06:20.196Z,3.2
2017-12-25T00:06:24.630Z,3.3
2017-12-25T00:06:28.550Z,3.31
2017-12-25T00:06:32.673Z,3.31
2017-12-25T00:06:36.785Z,3.3
2017-12-25T00:06:41.106Z,3.25
2017-12-25T00:06:45.234Z,3.28
2017-12-25T00:06:49.444Z,3.28
2017-12-25T00:06:53.467Z,3.28
2017-12-25T00:06:57.389Z,3.26
2017-12-25T00:07:01.603Z,3.28
2017-12-25T00:07:05.821Z,3.23
2017-12-25T00:07:10.162Z,3.3
2017-12-25T00:07:14.295Z,3.33
2017-12-25T00:07:18.420Z,3.26
2017-12-25T00:07:22.757Z,3.26
2017-12-25T00:07:26.770Z,3.26
2017-12-25T00:07:31.007Z,3.28
2017-12-25T00:07:35.342Z,3.28
2017-12-25T00:07:39.670Z,3.23
2017-12-25T00:07:43.897Z,3.26
2017-12-25T00:07:48.246Z,3.22
2017-12-25T00:07:52.582Z,3.23
2017-12-25T00:07:56.818Z,3.22
2017-12-25T00:08:01.046Z,3.23
2017-12-25T00:08:05.419Z,3.23
2017-12-25T00:08:09.436Z,3.22
2017-12-25T00:08:13.776Z,3.25
2017-12-25T00:08:17.802Z,3.26
2017-12-25T00:08:22.028Z,3.26
2017-12-25T00:08:26.139Z,3.2
2017-12-25T00:08:30.265Z,3.19
2017-12-25T00:08:34.374Z,3.22
2017-12-25T00:08:38.492Z,3.23
2017-12-25T00:08:42.727Z,3.2
2017-12-25T00:08:46.964Z,3.23
2017-12-25T00:08:51.297Z,3.26
2017-12-25T00:08:55.518Z,3.23
2017-12-25T00:08:59.860Z,3.22
2017-12-25T00:09:04.185Z,3.3
2017-12-25T00:09:08.096Z,3.28
2017-12-25T00:09:12.300Z,3.19
2017-12-25T00:09:16.433Z,3.26
2017-12-25T00:09:20.550Z,3.31
2017-12-25T00:09:24.675Z,3.3
2017-12-25T00:09:28.784Z,3.25
2017-12-25T00:09:33.003Z,3.25
2017-12-25T00:09:37.113Z,3.28
2017-12-25T00:09:41.352Z,3.25
2017-12-25T00:09:45.579Z,3.23
2017-12-25T00:09:49.792Z,3.26
2017-12-25T00:09:53.920Z,3.25
2017-12-25T00:09:58.132Z,3.23
2017-12-25T00:10:02.355Z,3.22
2017-12-25T00:10:06.486Z,3.28
2017-12-25T00:10:10.612Z,3.19
2017-12-25T00:10:14.951Z,3.26
2017-12-25T00:10:19.188Z,3.26
2017-12-25T00:10:23.203Z,3.26
2017-12-25T00:10:27.427Z,3.25
2017-12-25T00:10:31.456Z,3.22
2017-12-25T00:10:35.596Z,3.22
2017-12-25T00:10:39.715Z,3.23
2017-12-25T00:10:43.947Z,3.22
2017-12-25T00:10:48.298Z,3.23
2017-12-25T00:10:52.421Z,3.17
2017-12-25T00:10:56.550Z,3.19
2017-12-25T00:11:00.764Z,3.23
2017-12-25T00:11:05.451Z,3.2
2017-12-25T00:11:09.564Z,3.22
2017-12-25T00:11:13.784Z,3.23
2017-12-25T00:11:17.709Z,3.26
2017-12-25T00:11:21.941Z,3.22
2017-12-25T00:11:26.262Z,3.22
2017-12-25T00:11:30.497Z,3.19
2017-12-25T00:11:34.727Z,3.23
2017-12-25T00:11:38.969Z,3.22
2017-12-25T00:11:43.238Z,3.19
2017-12-25T00:11:47.420Z,3.2
2017-12-25T00:11:51.768Z,3.22
2017-12-25T00:11:55.996Z,3.23
2017-12-25T00:12:00.234Z,3.26
2017-12-25T00:12:04.355Z,3.26
2017-12-25T00:12:08.373Z,3.22
2017-12-25T00:12:12.497Z,3.22
2017-12-25T00:12:16.528Z,3.22
2017-12-25T00:12:20.636Z,3.2
2017-12-25T00:12:24.874Z,3.22
2017-12-25T00:12:28.996Z,3.19
2017-12-25T00:12:33.228Z,3.22
2017-12-25T00:12:37.442Z,3.34
2017-12-25T00:12:41.768Z,3.25
2017-12-25T00:12:46.093Z,3.23
2017-12-25T00:12:50.217Z,3.16
2017-12-25T00:12:54.334Z,3.23
2017-12-25T00:12:58.555Z,3.23
2017-12-25T00:13:02.674Z,3.23
2017-12-25T00:13:06.885Z,3.25
2017-12-25T00:13:11.009Z,3.28
2017-12-25T00:13:15.242Z,3.26
2017-12-25T00:13:19.351Z,3.22
2017-12-25T00:13:23.266Z,3.19
2017-12-25T00:13:27.288Z,3.23
2017-12-25T00:13:31.507Z,3.26
2017-12-25T00:13:35.730Z,3.31
2017-12-25T00:13:39.944Z,3.3
2017-12-25T00:13:43.973Z,3.23
2017-12-25T00:13:48.302Z,3.22
2017-12-25T00:13:52.620Z,3.23
2017-12-25T00:13:56.871Z,3.23
2017-12-25T00:14:00.991Z,3.22
2017-12-25T00:14:05.226Z,3.22
2017-12-25T00:14:09.336Z,3.25
2017-12-25T00:14:13.571Z,3.22
2017-12-25T00:14:17.578Z,3.2
2017-12-25T00:14:21.928Z,3.19
2017-12-25T00:14:26.045Z,3.23
2017-12-25T00:14:30.056Z,3.2
2017-12-25T00:14:34.287Z,3.2
2017-12-25T00:14:38.507Z,3.2
2017-12-25T00:14:42.739Z,3.22
2017-12-25T00:14:47.070Z,3.28
2017-12-25T00:14:51.202Z,3.2
2017-12-25T00:14:55.339Z,3.26
2017-12-25T00:14:59.584Z,3.25
2017-12-25T00:15:03.701Z,3.2
2017-12-25T00:15:07.697Z,3.22
2017-12-25T00:15:11.816Z,3.3
2017-12-25T00:15:16.047Z,3.2
2017-12-25T00:15:19.955Z,3.23
2017-12-25T00:15:24.183Z,3.23
2017-12-25T00:15:28.210Z,3.26
2017-12-25T00:15:32.550Z,3.23
2017-12-25T00:15:36.784Z,3.23
2017-12-25T00:15:40.998Z,3.25
2017-12-25T00:15:45.205Z,3.23
2017-12-25T00:15:49.224Z,3.26
2017-12-25T00:15:53.449Z,3.28
2017-12-25T00:15:57.666Z,3.23
2017-12-25T00:16:01.786Z,3.25
2017-12-25T00:16:06.015Z,3.23
2017-12-25T00:16:10.143Z,3.23
2017-12-25T00:16:14.464Z,3.23
2017-12-25T00:16:18.473Z,3.19
2017-12-25T00:16:22.602Z,3.22
2017-12-25T00:16:26.815Z,3.23
2017-12-25T00:16:30.943Z,3.25
2017-12-25T00:16:35.177Z,3.19
2017-12-25T00:16:39.499Z,3.28
2017-12-25T00:16:43.616Z,3.22
2017-12-25T00:16:47.630Z,3.22
2017-12-25T00:16:51.868Z,3.19
2017-12-25T00:16:55.876Z,3.17
2017-12-25T00:17:00.200Z,3.19
2017-12-25T00:17:04.527Z,3.19
2017-12-25T00:17:08.880Z,3.2
2017-12-25T00:17:13.117Z,3.25
2017-12-25T00:17:16.938Z,3.22
2017-12-25T00:17:21.164Z,3.2
2017-12-25T00:17:25.499Z,3.2
2017-12-25T00:17:29.846Z,3.2
2017-12-25T00:17:34.072Z,3.23
2017-12-25T00:17:38.318Z,3.23
2017-12-25T00:17:42.316Z,3.19
2017-12-25T00:17:46.638Z,3.22
2017-12-25T00:17:50.651Z,3.2
2017-12-25T00:17:54.790Z,3.23
2017-12-25T00:17:58.811Z,3.2
2017-12-25T00:18:03.227Z,3.23
2017-12-25T00:18:07.566Z,3.25
2017-12-25T00:18:11.586Z,3.2
2017-12-25T00:18:15.713Z,3.2
2017-12-25T00:18:19.858Z,3.19
2017-12-25T00:18:24.172Z,3.23
2017-12-25T00:18:28.175Z,3.2
2017-12-25T00:18:32.307Z,3.2
2017-12-25T00:18:36.441Z,3.2
2017-12-25T00:18:40.762Z,3.31
2017-12-25T00:18:44.904Z,3.19
2017-12-25T00:18:49.152Z,3.23
2017-12-25T00:18:53.252Z,3.2
2017-12-25T00:18:57.462Z,3.22
2017-12-25T00:19:01.890Z,3.2
2017-12-25T00:19:06.026Z,3.2
2017-12-25T00:19:10.366Z,3.23
2017-12-25T00:19:14.691Z,3.23
2017-12-25T00:19:18.702Z,3.2
2017-12-25T00:19:22.829Z,3.23
2017-12-25T00:19:26.961Z,3.2
2017-12-25T00:19:31.191Z,3.3
2017-12-25T00:19:35.582Z,3.22
2017-12-25T00:19:39.804Z,3.2
2017-12-25T00:19:44.016Z,3.23
2017-12-25T00:19:48.353Z,3.19
2017-12-25T00:19:52.689Z,3.19
2017-12-25T00:19:56.720Z,3.2
2017-12-25T00:20:01.061Z,3.26
2017-12-25T00:20:05.118Z,3.23
2017-12-25T00:20:09.470Z,3.2
2017-12-25T00:20:13.589Z,3.31
2017-12-25T00:20:17.819Z,3.2
2017-12-25T00:20:21.713Z,3.2
2017-12-25T00:20:26.038Z,3.2
2017-12-25T00:20:30.262Z,3.25
2017-12-25T00:20:34.477Z,3.23
2017-12-25T00:20:38.489Z,3.19
2017-12-25T00:20:42.602Z,3.19
2017-12-25T00:20:46.992Z,3.23
2017-12-25T00:20:51.219Z,3.19
2017-12-25T00:20:55.441Z,3.12
2017-12-25T00:20:59.560Z,3.16
2017-12-25T00:21:04.140Z,3.22
2017-12-25T00:21:08.348Z,3.17
2017-12-25T00:21:12.479Z,3.13
2017-12-25T00:21:16.606Z,3.12
2017-12-25T00:21:20.731Z,3.2
2017-12-25T00:21:24.865Z,3.22
2017-12-25T00:21:29.076Z,3.19
2017-12-25T00:21:33.419Z,3.19
2017-12-25T00:21:37.336Z,3.22
2017-12-25T00:21:41.450Z,3.22
2017-12-25T00:21:45.455Z,3.17
2017-12-25T00:21:49.790Z,3.16
2017-12-25T00:21:53.795Z,3.12
2017-12-25T00:21:58.125Z,3.19
2017-12-25T00:22:02.306Z,3.13
2017-12-25T00:22:06.328Z,3.1
2017-12-25T00:22:10.661Z,3.22
2017-12-25T00:22:14.683Z,3.15
2017-12-25T00:22:18.916Z,3.15
2017-12-25T00:22:23.031Z,3.16
2017-12-25T00:22:27.038Z,3.15
2017-12-25T00:22:31.357Z,3.12
2017-12-25T00:22:35.477Z,3.19
2017-12-25T00:22:39.708Z,3.2
2017-12-25T00:22:43.830Z,3.22
2017-12-25T00:22:48.176Z,3.12
2017-12-25T00:22:52.300Z,3.16
2017-12-25T00:22:56.513Z,3.16
2017-12-25T00:23:00.423Z,3.17
2017-12-25T00:23:04.764Z,3.12
2017-12-25T00:23:09.086Z,3.15
2017-12-25T00:23:13.322Z,3.17
2017-12-25T00:23:17.430Z,3.15
2017-12-25T00:23:21.782Z,3.19
2017-12-25T00:23:25.911Z,3.17
2017-12-25T00:23:29.925Z,3.15
2017-12-25T00:23:34.029Z,3.12
2017-12-25T00:23:38.141Z,3.12
2017-12-25T00:23:42.454Z,3.05
2017-12-25T00:23:46.793Z,3.12
2017-12-25T00:23:51.140Z,3.16
2017-12-25T00:23:55.373Z,3.1
2017-12-25T00:23:59.389Z,3.12
2017-12-25T00:24:03.729Z,3.16
2017-12-25T00:24:07.946Z,3.07
2017-12-25T00:24:12.163Z,3.12
2017-12-25T00:24:16.389Z,3.1
2017-12-25T00:24:20.495Z,3.12
2017-12-25T00:24:24.513Z,3.16
2017-12-25T00:24:28.788Z,3.12
2017-12-25T00:24:32.908Z,3.16
2017-12-25T00:24:37.112Z,3.16
2017-12-25T00:24:41.424Z,3.08
2017-12-25T00:24:45.759Z,3.16
2017-12-25T00:24:49.880Z,3.15
2017-12-25T00:24:53.895Z,3.12
2017-12-25T00:24:57.895Z,3.15
2017-12-25T00:25:02.291Z,3.17
2017-12-25T00:25:06.538Z,3.12
2017-12-25T00:25:10.762Z,2.99
2017-12-25T00:25:14.988Z,3.12
2017-12-25T00:25:18.996Z,3.12
2017-12-25T00:25:23.352Z,3.1
2017-12-25T00:25:27.475Z,3.17
2017-12-25T00:25:31.494Z,3.17
2017-12-25T00:25:35.507Z,3.13
2017-12-25T00:25:39.858Z,3.02
2017-12-25T00:25:44.099Z,3.1
2017-12-25T00:25:48.308Z,3.08
2017-12-25T00:25:52.324Z,2.99
2017-12-25T00:25:56.439Z,3.12
2017-12-25T00:26:00.781Z,3.13
2017-12-25T00:26:04.924Z,3.07
2017-12-25T00:26:09.144Z,3.1
2017-12-25T00:26:13.373Z,3.07
2017-12-25T00:26:17.281Z,3.15
2017-12-25T00:26:21.530Z,3.1
2017-12-25T00:26:25.860Z,3.16
2017-12-25T00:26:29.975Z,3.08
2017-12-25T00:26:34.097Z,3.1
2017-12-25T00:26:38.318Z,3.13
2017-12-25T00:26:42.445Z,3.15
2017-12-25T00:26:46.457Z,3.16
2017-12-25T00:26:50.800Z,3.12
2017-12-25T00:26:54.822Z,3.07
2017-12-25T00:26:58.962Z,3.12
2017-12-25T00:27:03.082Z,3.15
2017-12-25T00:27:07.215Z,3.12
2017-12-25T00:27:11.217Z,3.15
2017-12-25T00:27:15.543Z,3.12
2017-12-25T00:27:19.753Z,3.08
2017-12-25T00:27:23.874Z,3.12
2017-12-25T00:27:27.981Z,3.15
2017-12-25T00:27:32.211Z,3.16
2017-12-25T00:27:36.439Z,3.2
2017-12-25T00:27:40.675Z,3.15
2017-12-25T00:27:44.912Z,3.12
2017-12-25T00:27:49.050Z,3.08
2017-12-25T00:27:53.385Z,3.1
2017-12-25T00:27:57.304Z,3.17
2017-12-25T00:28:01.616Z,3.07
2017-12-25T00:28:05.933Z,3.13
2017-12-25T00:28:10.057Z,3.17
2017-12-25T00:28:14.297Z,3.16
2017-12-25T00:28:18.294Z,3.17
2017-12-25T00:28:22.521Z,3.16
2017-12-25T00:28:26.766Z,3.12
2017-12-25T00:28:30.879Z,3.16
2017-12-25T00:28:34.916Z,3.13
2017-12-25T00:28:39.033Z,3.1
2017-12-25T00:28:43.138Z,3.22
2017-12-25T00:28:47.362Z,3.1
2017-12-25T00:28:51.590Z,3.1
2017-12-25T00:28:55.831Z,3.13
2017-12-25T00:29:00.063Z,3.07
2017-12-25T00:29:04.331Z,3.15
2017-12-25T00:29:08.449Z,3.22
2017-12-25T00:29:12.786Z,3.23
2017-12-25T00:29:16.902Z,3.16
2017-12-25T00:29:21.234Z,3.2
2017-12-25T00:29:25.358Z,3.16
2017-12-25T00:29:29.619Z,3.13
2017-12-25T00:29:33.641Z,3.19
2017-12-25T00:29:37.775Z,3.22
2017-12-25T00:29:42.004Z,3.1
2017-12-25T00:29:46.335Z,3.2
2017-12-25T00:29:50.447Z,3.23
2017-12-25T00:29:54.570Z,3.15
2017-12-25T00:29:58.694Z,3.16
2017-12-25T00:30:03.222Z,3.17
2017-12-25T00:30:07.561Z,3.19
2017-12-25T00:30:11.587Z,3.2
2017-12-25T00:30:15.819Z,3.17
2017-12-25T00:30:19.947Z,3.19
2017-12-25T00:30:24.180Z,3.12
2017-12-25T00:30:28.414Z,3.19
2017-12-25T00:30:32.420Z,3.2
2017-12-25T00:30:36.644Z,3.16
2017-12-25T00:30:40.677Z,3.19
2017-12-25T00:30:44.809Z,3.15
2017-12-25T00:30:49.155Z,3.17
2017-12-25T00:30:53.474Z,3.17
2017-12-25T00:30:57.721Z,3.17
2017-12-25T00:31:01.845Z,3.16
2017-12-25T00:31:06.166Z,3.15
2017-12-25T00:31:10.457Z,3.2
2017-12-25T00:31:14.795Z,3.19
2017-12-25T00:31:18.922Z,3.17
2017-12-25T00:31:23.032Z,3.15
2017-12-25T00:31:27.136Z,3.17
2017-12-25T00:31:31.269Z,3.19
2017-12-25T00:31:35.486Z,3.07
2017-12-25T00:31:39.720Z,3.19
2017-12-25T00:31:43.833Z,3.17
2017-12-25T00:31:48.057Z,3.17
2017-12-25T00:31:52.391Z,3.19
2017-12-25T00:31:56.737Z,3.15
2017-12-25T00:32:00.868Z,3.1
2017-12-25T00:32:05.092Z,3.17
2017-12-25T00:32:09.096Z,3.16
2017-12-25T00:32:13.112Z,3.19
2017-12-25T00:32:17.241Z,3.1
2017-12-25T00:32:21.461Z,3.16
2017-12-25T00:32:25.584Z,3.19
2017-12-25T00:32:29.909Z,3.15
2017-12-25T00:32:34.042Z,3.19
2017-12-25T00:32:38.070Z,3.2
2017-12-25T00:32:42.399Z,3.12
2017-12-25T00:32:46.525Z,3.2
2017-12-25T00:32:50.856Z,3.19
2017-12-25T00:32:54.888Z,3.16
2017-12-25T00:32:58.915Z,3.19
2017-12-25T00:33:03.189Z,3.19
2017-12-25T00:33:07.427Z,3.17
2017-12-25T00:33:11.649Z,3.2
2017-12-25T00:33:15.883Z,3.19
2017-12-25T00:33:20.211Z,3.19
2017-12-25T00:33:24.234Z,3.13
2017-12-25T00:33:28.588Z,3.22
2017-12-25T00:33:32.819Z,3.12
2017-12-25T00:33:36.927Z,3.23
2017-12-25T00:33:41.266Z,3.19
2017-12-25T00:33:45.502Z,3.17
2017-12-25T00:33:49.825Z,3.17
2017-12-25T00:33:54.148Z,3.23
2017-12-25T00:33:58.362Z,3.19
2017-12-25T00:34:02.691Z,3.16
2017-12-25T00:34:06.910Z,3.12
2017-12-25T00:34:11.231Z,3.15
2017-12-25T00:34:15.466Z,3.2
2017-12-25T00:34:19.493Z,3.15
2017-12-25T00:34:23.702Z,3.17
2017-12-25T00:34:28.040Z,3.25
2017-12-25T00:34:32.256Z,3.19
2017-12-25T00:34:36.384Z,3.17
2017-12-25T00:34:40.719Z,3.17
2017-12-25T00:34:44.848Z,3.19
2017-12-25T00:34:49.065Z,3.2
2017-12-25T00:34:53.189Z,3.2
2017-12-25T00:34:57.436Z,3.16
2017-12-25T00:35:01.697Z,3.2
2017-12-25T00:35:05.834Z,3.2
2017-12-25T00:35:10.158Z,3.26
2017-12-25T00:35:14.280Z,3.2
2017-12-25T00:35:18.519Z,3.23
2017-12-25T00:35:22.733Z,3.3
2017-12-25T00:35:26.859Z,3.2
2017-12-25T00:35:30.975Z,3.25
2017-12-25T00:35:35.093Z,3.22
2017-12-25T00:35:39.001Z,3.17
2017-12-25T00:35:43.231Z,3.17
2017-12-25T00:35:47.564Z,3.23
2017-12-25T00:35:51.890Z,3.17
2017-12-25T00:35:56.015Z,3.2
2017-12-25T00:36:00.258Z,3.2
2017-12-25T00:36:04.526Z,3.19
2017-12-25T00:36:08.754Z,3.23
2017-12-25T00:36:12.875Z,3.22
2017-12-25T00:36:17.094Z,3.22
2017-12-25T00:36:21.328Z,3.19
2017-12-25T00:36:25.539Z,3.22
2017-12-25T00:36:29.926Z,3.2
2017-12-25T00:36:34.265Z,3.2
2017-12-25T00:36:38.387Z,3.19
2017-12-25T00:36:42.397Z,3.23
2017-12-25T00:36:46.722Z,3.19
2017-12-25T00:36:51.073Z,3.16
2017-12-25T00:36:55.184Z,3.2
2017-12-25T00:36:59.309Z,3.22
2017-12-25T00:37:03.631Z,3.3
2017-12-25T00:37:07.752Z,3.25
2017-12-25T00:37:12.001Z,3.19
2017-12-25T00:37:16.141Z,3.2
2017-12-25T00:37:20.470Z,3.22
2017-12-25T00:37:24.709Z,3.2
2017-12-25T00:37:29.041Z,3.22
2017-12-25T00:37:32.951Z,3.2
2017-12-25T00:37:37.166Z,3.22
2017-12-25T00:37:41.276Z,3.28
2017-12-25T00:37:45.501Z,3.2
2017-12-25T00:37:49.846Z,3.3
2017-12-25T00:37:54.071Z,3.22
2017-12-25T00:37:58.197Z,3.25
2017-12-25T00:38:02.533Z,3.2
2017-12-25T00:38:06.867Z,3.13
2017-12-25T00:38:11.097Z,3.22
2017-12-25T00:38:15.109Z,3.19
2017-12-25T00:38:19.223Z,3.2
2017-12-25T00:38:23.570Z,3.2
2017-12-25T00:38:27.781Z,3.2
2017-12-25T00:38:32.106Z,3.23
2017-12-25T00:38:36.234Z,3.19
2017-12-25T00:38:40.348Z,3.25
2017-12-25T00:38:44.374Z,3.23
2017-12-25T00:38:48.694Z,3.23
2017-12-25T00:38:52.909Z,3.26
2017-12-25T00:38:56.934Z,3.2
2017-12-25T00:39:00.946Z,3.16
2017-12-25T00:39:05.279Z,3.26
2017-12-25T00:39:09.601Z,3.2
2017-12-25T00:39:13.922Z,3.2
2017-12-25T00:39:17.927Z,3.15
2017-12-25T00:39:22.157Z,3.22
2017-12-25T00:39:26.179Z,3.25
2017-12-25T00:39:30.496Z,3.2
2017-12-25T00:39:34.755Z,3.22
2017-12-25T00:39:39.088Z,3.23
2017-12-25T00:39:43.237Z,3.16
2017-12-25T00:39:47.467Z,3.23
2017-12-25T00:39:51.797Z,3.23
2017-12-25T00:39:55.917Z,3.22
2017-12-25T00:39:59.926Z,3.22
2017-12-25T00:40:04.156Z,3.17
2017-12-25T00:40:08.504Z,3.25
2017-12-25T00:40:12.740Z,3.13
2017-12-25T00:40:16.755Z,3.22
2017-12-25T00:40:20.985Z,3.28
2017-12-25T00:40:25.111Z,3.15
2017-12-25T00:40:29.450Z,3.2
2017-12-25T00:40:33.572Z,3.16
2017-12-25T00:40:37.674Z,3.26
2017-12-25T00:40:41.915Z,3.19
2017-12-25T00:40:46.036Z,3.22
2017-12-25T00:40:50.273Z,3.2
2017-12-25T00:40:54.290Z,3.16
2017-12-25T00:40:58.191Z,3.2
2017-12-25T00:41:02.456Z,3.19
2017-12-25T00:41:06.586Z,3.25
2017-12-25T00:41:10.719Z,3.25
2017-12-25T00:41:14.939Z,3.22
2017-12-25T00:41:19.076Z,3.26
2017-12-25T00:41:23.307Z,3.3
2017-12-25T00:41:27.634Z,3.23
2017-12-25T00:41:31.868Z,3.17
2017-12-25T00:41:35.988Z,3.19
2017-12-25T00:41:40.219Z,3.25
2017-12-25T00:41:44.460Z,3.16
2017-12-25T00:41:48.790Z,3.28
2017-12-25T00:41:53.117Z,3.19
2017-12-25T00:41:57.352Z,3.15
2017-12-25T00:42:01.468Z,3.2
2017-12-25T00:42:05.687Z,3.17
2017-12-25T00:42:09.686Z,3.2
2017-12-25T00:42:13.916Z,3.26
2017-12-25T00:42:18.046Z,3.19
2017-12-25T00:42:22.063Z,3.2
2017-12-25T00:42:26.387Z,3.22
2017-12-25T00:42:30.619Z,3.2
2017-12-25T00:42:34.851Z,3.19
2017-12-25T00:42:39.169Z,3.3
2017-12-25T00:42:43.387Z,3.19
2017-12-25T00:42:47.630Z,3.22
2017-12-25T00:42:51.965Z,3.2
2017-12-25T00:42:56.192Z,3.22
2017-12-25T00:43:00.530Z,3.2
2017-12-25T00:43:04.657Z,3.26
2017-12-25T00:43:08.877Z,3.19
2017-12-25T00:43:13.203Z,3.26
2017-12-25T00:43:17.228Z,3.17
2017-12-25T00:43:21.453Z,3.2
2017-12-25T00:43:25.768Z,3.17
2017-12-25T00:43:29.693Z,3.19
2017-12-25T00:43:34.027Z,3.23
2017-12-25T00:43:38.258Z,3.19
2017-12-25T00:43:42.378Z,3.2
2017-12-25T00:43:46.602Z,3.13
2017-12-25T00:43:50.831Z,3.23
2017-12-25T00:43:55.067Z,3.19
2017-12-25T00:43:59.189Z,3.15
2017-12-25T00:44:03.327Z,3.19
2017-12-25T00:44:07.691Z,3.17
2017-12-25T00:44:12.020Z,3.22
2017-12-25T00:44:16.259Z,3.23
2017-12-25T00:44:20.379Z,3.23
2017-12-25T00:44:24.590Z,3.19
2017-12-25T00:44:28.704Z,3.3
2017-12-25T00:44:32.835Z,3.19
2017-12-25T00:44:37.171Z,3.23
2017-12-25T00:44:41.509Z,3.17
2017-12-25T00:44:45.752Z,3.22
2017-12-25T00:44:49.768Z,3.17
2017-12-25T00:44:54.098Z,3.22
2017-12-25T00:44:58.335Z,3.19
2017-12-25T00:45:02.905Z,3.2
2017-12-25T00:45:07.245Z,3.17
2017-12-25T00:45:11.493Z,3.22
2017-12-25T00:45:15.616Z,3.19
2017-12-25T00:45:19.957Z,3.2
2017-12-25T00:45:24.313Z,3.22
2017-12-25T00:45:28.545Z,3.22
2017-12-25T00:45:32.769Z,3.22
2017-12-25T00:45:36.999Z,3.2
2017-12-25T00:45:41.214Z,3.19
2017-12-25T00:45:45.576Z,3.2
2017-12-25T00:45:49.693Z,3.2
2017-12-25T00:45:53.924Z,3.17
2017-12-25T00:45:58.145Z,3.2
2017-12-25T00:46:02.496Z,3.2
2017-12-25T00:46:06.624Z,3.23
2017-12-25T00:46:10.756Z,3.23
2017-12-25T00:46:14.884Z,3.23
2017-12-25T00:46:19.004Z,3.25
2017-12-25T00:46:23.008Z,3.12
2017-12-25T00:46:27.339Z,3.23
2017-12-25T00:46:31.674Z,3.15
2017-12-25T00:46:35.806Z,3.16
2017-12-25T00:46:40.143Z,3.22
2017-12-25T00:46:44.258Z,3.15
2017-12-25T00:46:48.606Z,3.19
2017-12-25T00:46:52.755Z,3.23
2017-12-25T00:46:56.882Z,3.12
2017-12-25T00:47:00.893Z,3.22
2017-12-25T00:47:05.115Z,3.15
2017-12-25T00:47:09.352Z,3.19
2017-12-25T00:47:13.481Z,3.2
2017-12-25T00:47:17.513Z,3.12
2017-12-25T00:47:21.780Z,3.17
2017-12-25T00:47:25.694Z,3.2
2017-12-25T00:47:29.976Z,3.13
2017-12-25T00:47:34.100Z,3.19
2017-12-25T00:47:38.239Z,3.19
2017-12-25T00:47:42.570Z,3.2
2017-12-25T00:47:46.492Z,3.19
2017-12-25T00:47:50.505Z,3.15
2017-12-25T00:47:54.741Z,3.19
2017-12-25T00:47:58.855Z,3.15
2017-12-25T00:48:03.187Z,3.17
2017-12-25T00:48:07.541Z,3.2
2017-12-25T00:48:11.761Z,3.19
2017-12-25T00:48:15.886Z,3.15
2017-12-25T00:48:19.913Z,3.17
2017-12-25T00:48:24.238Z,3.19
2017-12-25T00:48:28.453Z,3.16
2017-12-25T00:48:32.476Z,3.17
2017-12-25T00:48:36.810Z,3.16
2017-12-25T00:48:41.143Z,3.16
2017-12-25T00:48:45.140Z,3.17
2017-12-25T00:48:49.368Z,3.22
2017-12-25T00:48:53.589Z,3.19
2017-12-25T00:48:57.914Z,3.1
2017-12-25T00:49:02.139Z,3.16
2017-12-25T00:49:06.377Z,3.19
2017-12-25T00:49:10.489Z,3.1
2017-12-25T00:49:14.615Z,3.13
2017-12-25T00:49:18.537Z,3.13
2017-12-25T00:49:22.760Z,3.12
2017-12-25T00:49:26.757Z,3.15
2017-12-25T00:49:31.083Z,3.17
2017-12-25T00:49:35.203Z,3.05
2017-12-25T00:49:39.120Z,3.08
2017-12-25T00:49:43.464Z,3.1
2017-12-25T00:49:47.692Z,3.15
2017-12-25T00:49:51.800Z,3.12
2017-12-25T00:49:55.915Z,3.13
2017-12-25T00:50:00.238Z,3.1
2017-12-25T00:50:04.463Z,3.17
2017-12-25T00:50:08.587Z,3.17
2017-12-25T00:50:12.744Z,3.07
2017-12-25T00:50:17.081Z,3.07
2017-12-25T00:50:21.316Z,3.12
2017-12-25T00:50:25.429Z,3.13
2017-12-25T00:50:29.669Z,3.12
2017-12-25T00:50:33.782Z,3.19
2017-12-25T00:50:37.910Z,3.13
2017-12-25T00:50:42.251Z,3.12
2017-12-25T00:50:46.279Z,3.15
2017-12-25T00:50:50.396Z,3.15
2017-12-25T00:50:54.398Z,3.08
2017-12-25T00:50:58.738Z,3.13
2017-12-25T00:51:03.259Z,3.07
2017-12-25T00:51:07.395Z,3.1
2017-12-25T00:51:11.426Z,3.05
2017-12-25T00:51:15.549Z,3.07
2017-12-25T00:51:19.782Z,3.05
2017-12-25T00:51:24.125Z,3.08
2017-12-25T00:51:28.242Z,3.07
2017-12-25T00:51:32.398Z,3.04
2017-12-25T00:51:36.641Z,3.01
2017-12-25T00:51:40.856Z,3.07
2017-12-25T00:51:45.078Z,2.99
2017-12-25T00:51:49.201Z,3.04
2017-12-25T00:51:53.421Z,2.99
2017-12-25T00:51:57.639Z,3.07
2017-12-25T00:52:01.870Z,3.05
2017-12-25T00:52:06.210Z,3.08
2017-12-25T00:52:10.428Z,2.99
2017-12-25T00:52:14.666Z,2.97
2017-12-25T00:52:18.475Z,3.05
2017-12-25T00:52:22.486Z,3.01
2017-12-25T00:52:26.422Z,3.05
2017-12-25T00:52:30.650Z,3.07
2017-12-25T00:52:34.768Z,3.04
2017-12-25T00:52:38.891Z,2.97
2017-12-25T00:52:43.116Z,3.1
2017-12-25T00:52:47.469Z,3.05
2017-12-25T00:52:51.601Z,2.92
2017-12-25T00:52:55.631Z,3.01
2017-12-25T00:52:59.549Z,3.1
2017-12-25T00:53:03.977Z,3.07
2017-12-25T00:53:08.202Z,3.05
2017-12-25T00:53:12.434Z,3.04
2017-12-25T00:53:16.683Z,2.95
2017-12-25T00:53:20.922Z,3.05
2017-12-25T00:53:25.055Z,3.04
2017-12-25T00:53:29.067Z,2.97
2017-12-25T00:53:33.183Z,2.98
2017-12-25T00:53:37.316Z,2.92
2017-12-25T00:53:41.542Z,3.05
2017-12-25T00:53:45.890Z,3.04
2017-12-25T00:53:50.217Z,3.05
2017-12-25T00:53:54.435Z,3.07
2017-12-25T00:53:58.661Z,2.97
2017-12-25T00:54:03.130Z,3.04
2017-12-25T00:54:07.248Z,3.04
2017-12-25T00:54:11.591Z,3.08
2017-12-25T00:54:15.592Z,3.04
2017-12-25T00:54:19.820Z,3.01
2017-12-25T00:54:23.928Z,2.95
2017-12-25T00:54:28.164Z,3.05
2017-12-25T00:54:32.294Z,3.07
2017-12-25T00:54:36.405Z,3.08
2017-12-25T00:54:40.627Z,2.97
2017-12-25T00:54:44.661Z,2.95
2017-12-25T00:54:48.999Z,3.1
2017-12-25T00:54:53.224Z,3.04
2017-12-25T00:54:57.462Z,3.08
2017-12-25T00:55:01.791Z,3.02
2017-12-25T00:55:06.018Z,2.99
2017-12-25T00:55:10.242Z,3.12
2017-12-25T00:55:14.568Z,3.04
2017-12-25T00:55:18.487Z,3.07
2017-12-25T00:55:22.812Z,3.07
2017-12-25T00:55:26.848Z,3.07
2017-12-25T00:55:30.865Z,3.05
2017-12-25T00:55:35.081Z,3.1
2017-12-25T00:55:39.201Z,3.08
2017-12-25T00:55:43.336Z,3.05
2017-12-25T00:55:47.562Z,2.95
2017-12-25T00:55:51.688Z,3.04
2017-12-25T00:55:55.689Z,3.05
2017-12-25T00:55:59.929Z,3.05
2017-12-25T00:56:04.390Z,3.05
2017-12-25T00:56:08.723Z,2.95